Custer, Michigan
Current Conditions -  °F | °C
As of 3:55 PM on Thursday 20 Nov 2014 (Local Time) from KLDM Reporting Station
Overcast Overcast  
Wind Chill:   Ceiling: 3600
Heat Index: 21°   Visibility: 10mi
Dew Point:   Wind: 14mph
Humidity: 55%   Direction: 300°WNW
Pressure: 29.98"   Gusts: 18mph
Location:  43.95°N, 86.22°W
Report Text: KLDM 202055Z AUTO 30012G16KT 250V310 10SM BKN036 OVC047 M06/M14 A2998 RMK AO2 T10631140
Loading
Personal Weather Stations






























Interactive Weather Map New forecast layout! Learn more

10-Day Weather Forecast

Advertisements
Track Severe Weather on mobile